sensor_id;sensor_type;location;lat;lon;timestamp;P1;durP1;ratioP1;P2;durP2;ratioP2
15412;SDS011;7805;49.554;7.632;2024-01-30T00:01:11;24.90;;;16.17;;
15412;SDS011;7805;49.554;7.632;2024-01-30T00:03:36;26.90;;;16.50;;
15412;SDS011;7805;49.554;7.632;2024-01-30T00:06:05;24.20;;;15.83;;
15412;SDS011;7805;49.554;7.632;2024-01-30T00:08:31;21.50;;;12.73;;
15412;SDS011;7805;49.554;7.632;2024-01-30T00:10:56;16.67;;;11.87;;
15412;SDS011;7805;49.554;7.632;2024-01-30T00:13:22;13.57;;;10.03;;
15412;SDS011;7805;49.554;7.632;2024-01-30T00:15:47;14.53;;;11.37;;
15412;SDS011;7805;49.554;7.632;2024-01-30T00:18:13;21.23;;;14.57;;
15412;SDS011;7805;49.554;7.632;2024-01-30T00:20:39;22.20;;;13.87;;
15412;SDS011;7805;49.554;7.632;2024-01-30T00:23:04;20.23;;;13.33;;
15412;SDS011;7805;49.554;7.632;2024-01-30T00:25:30;23.43;;;15.43;;
15412;SDS011;7805;49.554;7.632;2024-01-30T00:27:56;24.40;;;16.40;;
15412;SDS011;7805;49.554;7.632;2024-01-30T00:30:21;21.90;;;15.07;;
15412;SDS011;7805;49.554;7.632;2024-01-30T00:32:47;23.00;;;15.40;;
15412;SDS011;7805;49.554;7.632;2024-01-30T00:35:12;22.97;;;15.13;;
15412;SDS011;7805;49.554;7.632;2024-01-30T00:37:38;21.53;;;13.70;;
15412;SDS011;7805;49.554;7.632;2024-01-30T00:40:04;20.60;;;14.67;;
15412;SDS011;7805;49.554;7.632;2024-01-30T00:42:31;19.67;;;14.30;;
15412;SDS011;7805;49.554;7.632;2024-01-30T00:44:56;19.67;;;13.37;;
15412;SDS011;7805;49.554;7.632;2024-01-30T00:47:22;23.67;;;17.10;;
15412;SDS011;7805;49.554;7.632;2024-01-30T00:49:48;27.23;;;18.30;;
15412;SDS011;7805;49.554;7.632;2024-01-30T00:52:14;31.17;;;19.73;;
15412;SDS011;7805;49.554;7.632;2024-01-30T00:54:40;28.57;;;19.23;;
15412;SDS011;7805;49.554;7.632;2024-01-30T00:57:06;26.20;;;17.27;;
15412;SDS011;7805;49.554;7.632;2024-01-30T00:59:32;29.23;;;18.90;;
15412;SDS011;7805;49.554;7.632;2024-01-30T01:01:58;22.97;;;16.67;;
15412;SDS011;7805;49.554;7.632;2024-01-30T01:04:24;19.30;;;13.93;;
15412;SDS011;7805;49.554;7.632;2024-01-30T01:06:50;19.23;;;13.20;;
15412;SDS011;7805;49.554;7.632;2024-01-30T01:09:15;17.30;;;12.03;;
15412;SDS011;7805;49.554;7.632;2024-01-30T01:11:41;19.87;;;13.23;;
15412;SDS011;7805;49.554;7.632;2024-01-30T01:14:07;15.97;;;11.97;;
15412;SDS011;7805;49.554;7.632;2024-01-30T01:16:32;15.50;;;11.53;;
15412;SDS011;7805;49.554;7.632;2024-01-30T01:18:58;12.13;;;9.80;;
15412;SDS011;7805;49.554;7.632;2024-01-30T01:21:25;14.93;;;10.33;;
15412;SDS011;7805;49.554;7.632;2024-01-30T01:23:50;12.17;;;8.93;;
15412;SDS011;7805;49.554;7.632;2024-01-30T01:26:16;10.27;;;7.43;;
15412;SDS011;7805;49.554;7.632;2024-01-30T01:28:42;12.57;;;8.27;;
15412;SDS011;7805;49.554;7.632;2024-01-30T01:31:07;12.17;;;9.70;;
15412;SDS011;7805;49.554;7.632;2024-01-30T01:33:34;17.57;;;10.87;;
15412;SDS011;7805;49.554;7.632;2024-01-30T01:36:00;13.43;;;10.83;;
15412;SDS011;7805;49.554;7.632;2024-01-30T01:38:29;14.90;;;10.50;;
15412;SDS011;7805;49.554;7.632;2024-01-30T01:40:54;16.27;;;10.67;;
15412;SDS011;7805;49.554;7.632;2024-01-30T01:43:20;13.93;;;10.40;;
15412;SDS011;7805;49.554;7.632;2024-01-30T01:45:45;13.53;;;9.93;;
15412;SDS011;7805;49.554;7.632;2024-01-30T01:48:11;13.80;;;9.70;;
15412;SDS011;7805;49.554;7.632;2024-01-30T01:50:37;12.87;;;8.10;;
15412;SDS011;7805;49.554;7.632;2024-01-30T01:53:04;10.53;;;8.40;;
15412;SDS011;7805;49.554;7.632;2024-01-30T01:55:33;13.33;;;8.80;;
15412;SDS011;7805;49.554;7.632;2024-01-30T01:58:00;11.40;;;8.07;;
15412;SDS011;7805;49.554;7.632;2024-01-30T02:00:26;10.80;;;8.90;;
15412;SDS011;7805;49.554;7.632;2024-01-30T02:02:52;14.27;;;9.37;;
15412;SDS011;7805;49.554;7.632;2024-01-30T02:05:19;13.37;;;9.53;;
15412;SDS011;7805;49.554;7.632;2024-01-30T02:07:45;15.57;;;9.57;;
15412;SDS011;7805;49.554;7.632;2024-01-30T02:10:11;16.53;;;9.07;;
15412;SDS011;7805;49.554;7.632;2024-01-30T02:12:37;14.37;;;8.97;;
15412;SDS011;7805;49.554;7.632;2024-01-30T02:15:03;12.50;;;9.10;;
15412;SDS011;7805;49.554;7.632;2024-01-30T02:17:32;13.87;;;8.90;;
15412;SDS011;7805;49.554;7.632;2024-01-30T02:20:00;12.83;;;8.50;;
15412;SDS011;7805;49.554;7.632;2024-01-30T02:22:26;13.53;;;8.23;;
15412;SDS011;7805;49.554;7.632;2024-01-30T02:24:52;12.53;;;9.27;;
15412;SDS011;7805;49.554;7.632;2024-01-30T02:27:18;15.30;;;8.03;;
15412;SDS011;7805;49.554;7.632;2024-01-30T02:29:43;13.53;;;9.20;;
15412;SDS011;7805;49.554;7.632;2024-01-30T02:32:09;14.77;;;9.60;;
15412;SDS011;7805;49.554;7.632;2024-01-30T02:34:34;21.33;;;10.37;;
15412;SDS011;7805;49.554;7.632;2024-01-30T02:37:00;17.60;;;11.03;;
15412;SDS011;7805;49.554;7.632;2024-01-30T02:39:26;23.20;;;10.73;;
15412;SDS011;7805;49.554;7.632;2024-01-30T02:41:51;24.40;;;14.33;;
15412;SDS011;7805;49.554;7.632;2024-01-30T02:44:17;24.83;;;13.73;;
15412;SDS011;7805;49.554;7.632;2024-01-30T02:46:43;22.97;;;12.60;;
15412;SDS011;7805;49.554;7.632;2024-01-30T02:49:08;20.57;;;12.60;;
15412;SDS011;7805;49.554;7.632;2024-01-30T02:51:34;26.97;;;15.43;;
15412;SDS011;7805;49.554;7.632;2024-01-30T02:53:59;35.40;;;16.87;;
15412;SDS011;7805;49.554;7.632;2024-01-30T02:56:25;32.17;;;16.23;;
15412;SDS011;7805;49.554;7.632;2024-01-30T02:58:50;28.57;;;15.70;;
15412;SDS011;7805;49.554;7.632;2024-01-30T03:01:16;29.80;;;15.53;;
15412;SDS011;7805;49.554;7.632;2024-01-30T03:03:41;28.77;;;15.33;;
15412;SDS011;7805;49.554;7.632;2024-01-30T03:06:08;54.73;;;22.73;;
15412;SDS011;7805;49.554;7.632;2024-01-30T03:08:33;33.50;;;18.67;;
15412;SDS011;7805;49.554;7.632;2024-01-30T03:11:00;148.90;;;44.03;;
15412;SDS011;7805;49.554;7.632;2024-01-30T03:13:25;50.03;;;25.03;;
15412;SDS011;7805;49.554;7.632;2024-01-30T03:15:51;113.23;;;37.93;;
15412;SDS011;7805;49.554;7.632;2024-01-30T03:18:16;50.13;;;27.23;;
15412;SDS011;7805;49.554;7.632;2024-01-30T03:20:42;44.67;;;24.07;;
15412;SDS011;7805;49.554;7.632;2024-01-30T03:23:08;33.83;;;15.93;;
15412;SDS011;7805;49.554;7.632;2024-01-30T03:25:34;24.80;;;12.33;;
15412;SDS011;7805;49.554;7.632;2024-01-30T03:27:59;22.40;;;12.27;;
15412;SDS011;7805;49.554;7.632;2024-01-30T03:30:25;23.50;;;11.97;;
15412;SDS011;7805;49.554;7.632;2024-01-30T03:32:50;17.47;;;11.97;;
15412;SDS011;7805;49.554;7.632;2024-01-30T03:35:16;18.63;;;10.87;;
15412;SDS011;7805;49.554;7.632;2024-01-30T03:37:41;20.07;;;12.33;;
15412;SDS011;7805;49.554;7.632;2024-01-30T03:40:07;19.67;;;12.67;;
15412;SDS011;7805;49.554;7.632;2024-01-30T03:42:33;19.87;;;12.33;;
15412;SDS011;7805;49.554;7.632;2024-01-30T03:44:58;22.57;;;13.87;;
15412;SDS011;7805;49.554;7.632;2024-01-30T03:47:24;22.60;;;15.63;;
15412;SDS011;7805;49.554;7.632;2024-01-30T03:49:49;23.90;;;14.87;;
15412;SDS011;7805;49.554;7.632;2024-01-30T03:52:15;24.07;;;14.53;;
15412;SDS011;7805;49.554;7.632;2024-01-30T03:54:41;29.67;;;17.10;;
15412;SDS011;7805;49.554;7.632;2024-01-30T03:57:06;28.00;;;18.00;;
15412;SDS011;7805;49.554;7.632;2024-01-30T03:59:32;27.20;;;17.47;;
15412;SDS011;7805;49.554;7.632;2024-01-30T04:01:57;32.13;;;19.47;;
15412;SDS011;7805;49.554;7.632;2024-01-30T04:04:23;32.23;;;18.30;;
15412;SDS011;7805;49.554;7.632;2024-01-30T04:06:48;23.27;;;13.73;;
15412;SDS011;7805;49.554;7.632;2024-01-30T04:09:14;25.10;;;13.53;;
15412;SDS011;7805;49.554;7.632;2024-01-30T04:11:40;18.17;;;12.73;;
15412;SDS011;7805;49.554;7.632;2024-01-30T04:14:07;23.07;;;12.67;;
15412;SDS011;7805;49.554;7.632;2024-01-30T04:16:33;25.60;;;14.07;;
15412;SDS011;7805;49.554;7.632;2024-01-30T04:18:58;25.47;;;14.10;;
15412;SDS011;7805;49.554;7.632;2024-01-30T04:21:24;23.53;;;14.27;;
15412;SDS011;7805;49.554;7.632;2024-01-30T04:23:50;20.87;;;12.57;;
15412;SDS011;7805;49.554;7.632;2024-01-30T04:26:16;18.73;;;12.20;;
15412;SDS011;7805;49.554;7.632;2024-01-30T04:28:44;18.83;;;12.30;;
15412;SDS011;7805;49.554;7.632;2024-01-30T04:31:10;14.80;;;11.07;;
15412;SDS011;7805;49.554;7.632;2024-01-30T04:33:36;16.57;;;11.23;;
15412;SDS011;7805;49.554;7.632;2024-01-30T04:36:01;14.57;;;10.57;;
15412;SDS011;7805;49.554;7.632;2024-01-30T04:38:28;15.63;;;11.17;;
15412;SDS011;7805;49.554;7.632;2024-01-30T04:40:53;17.47;;;11.17;;
15412;SDS011;7805;49.554;7.632;2024-01-30T04:43:19;21.43;;;12.93;;
15412;SDS011;7805;49.554;7.632;2024-01-30T04:45:44;15.40;;;10.93;;
15412;SDS011;7805;49.554;7.632;2024-01-30T04:48:10;16.27;;;11.23;;
15412;SDS011;7805;49.554;7.632;2024-01-30T04:50:36;17.93;;;11.60;;
15412;SDS011;7805;49.554;7.632;2024-01-30T04:53:01;14.73;;;10.43;;
15412;SDS011;7805;49.554;7.632;2024-01-30T04:55:27;15.80;;;10.97;;
15412;SDS011;7805;49.554;7.632;2024-01-30T04:57:52;14.57;;;10.60;;
15412;SDS011;7805;49.554;7.632;2024-01-30T05:00:18;14.77;;;10.90;;
15412;SDS011;7805;49.554;7.632;2024-01-30T05:02:44;15.37;;;10.60;;
15412;SDS011;7805;49.554;7.632;2024-01-30T05:05:09;14.70;;;10.47;;
15412;SDS011;7805;49.554;7.632;2024-01-30T05:07:35;14.87;;;10.63;;
15412;SDS011;7805;49.554;7.632;2024-01-30T05:10:01;13.27;;;9.97;;
15412;SDS011;7805;49.554;7.632;2024-01-30T05:12:28;15.40;;;9.57;;
15412;SDS011;7805;49.554;7.632;2024-01-30T05:14:53;16.03;;;10.33;;
15412;SDS011;7805;49.554;7.632;2024-01-30T05:17:19;14.97;;;10.70;;
15412;SDS011;7805;49.554;7.632;2024-01-30T05:19:44;14.87;;;10.77;;
15412;SDS011;7805;49.554;7.632;2024-01-30T05:22:10;13.40;;;10.27;;
15412;SDS011;7805;49.554;7.632;2024-01-30T05:24:36;14.10;;;9.83;;
15412;SDS011;7805;49.554;7.632;2024-01-30T05:27:02;12.73;;;9.50;;
15412;SDS011;7805;49.554;7.632;2024-01-30T05:29:28;13.00;;;9.33;;
15412;SDS011;7805;49.554;7.632;2024-01-30T05:31:53;13.30;;;10.07;;
15412;SDS011;7805;49.554;7.632;2024-01-30T05:34:19;14.13;;;10.00;;
15412;SDS011;7805;49.554;7.632;2024-01-30T05:36:44;12.80;;;10.03;;
15412;SDS011;7805;49.554;7.632;2024-01-30T05:39:10;13.00;;;10.03;;
15412;SDS011;7805;49.554;7.632;2024-01-30T05:41:36;15.93;;;10.93;;
15412;SDS011;7805;49.554;7.632;2024-01-30T05:44:01;12.73;;;9.27;;
15412;SDS011;7805;49.554;7.632;2024-01-30T05:46:27;13.67;;;9.93;;
15412;SDS011;7805;49.554;7.632;2024-01-30T05:48:52;14.07;;;10.23;;
15412;SDS011;7805;49.554;7.632;2024-01-30T05:51:18;12.43;;;10.03;;
15412;SDS011;7805;49.554;7.632;2024-01-30T05:53:44;15.93;;;10.47;;
15412;SDS011;7805;49.554;7.632;2024-01-30T05:56:09;12.03;;;9.40;;
15412;SDS011;7805;49.554;7.632;2024-01-30T05:58:35;12.80;;;9.97;;
15412;SDS011;7805;49.554;7.632;2024-01-30T06:01:02;13.17;;;9.97;;
15412;SDS011;7805;49.554;7.632;2024-01-30T06:03:31;14.90;;;10.93;;
15412;SDS011;7805;49.554;7.632;2024-01-30T06:05:57;17.10;;;13.47;;
15412;SDS011;7805;49.554;7.632;2024-01-30T06:08:22;16.53;;;12.33;;
15412;SDS011;7805;49.554;7.632;2024-01-30T06:10:48;13.53;;;10.87;;
15412;SDS011;7805;49.554;7.632;2024-01-30T06:13:14;15.13;;;11.13;;
15412;SDS011;7805;49.554;7.632;2024-01-30T06:15:39;15.40;;;10.80;;
15412;SDS011;7805;49.554;7.632;2024-01-30T06:18:05;14.00;;;10.70;;
15412;SDS011;7805;49.554;7.632;2024-01-30T06:20:30;13.03;;;9.90;;
15412;SDS011;7805;49.554;7.632;2024-01-30T06:22:56;16.07;;;10.87;;
15412;SDS011;7805;49.554;7.632;2024-01-30T06:25:21;14.00;;;9.77;;
15412;SDS011;7805;49.554;7.632;2024-01-30T06:27:47;12.73;;;10.47;;
15412;SDS011;7805;49.554;7.632;2024-01-30T06:30:13;11.67;;;9.40;;
15412;SDS011;7805;49.554;7.632;2024-01-30T06:32:39;14.83;;;10.00;;
15412;SDS011;7805;49.554;7.632;2024-01-30T06:35:05;14.10;;;10.00;;
15412;SDS011;7805;49.554;7.632;2024-01-30T06:37:31;13.03;;;10.00;;
15412;SDS011;7805;49.554;7.632;2024-01-30T06:39:56;15.67;;;11.00;;
15412;SDS011;7805;49.554;7.632;2024-01-30T06:42:22;15.40;;;10.60;;
15412;SDS011;7805;49.554;7.632;2024-01-30T06:44:48;12.23;;;10.10;;
15412;SDS011;7805;49.554;7.632;2024-01-30T06:47:13;12.57;;;9.47;;
15412;SDS011;7805;49.554;7.632;2024-01-30T06:49:39;14.73;;;10.63;;
15412;SDS011;7805;49.554;7.632;2024-01-30T06:52:07;12.47;;;10.00;;
15412;SDS011;7805;49.554;7.632;2024-01-30T06:54:32;14.47;;;10.63;;
15412;SDS011;7805;49.554;7.632;2024-01-30T06:56:58;13.37;;;10.10;;
15412;SDS011;7805;49.554;7.632;2024-01-30T06:59:24;12.17;;;9.50;;
15412;SDS011;7805;49.554;7.632;2024-01-30T07:01:50;13.87;;;10.60;;
15412;SDS011;7805;49.554;7.632;2024-01-30T07:04:15;15.83;;;10.20;;
15412;SDS011;7805;49.554;7.632;2024-01-30T07:06:41;11.67;;;9.40;;
15412;SDS011;7805;49.554;7.632;2024-01-30T07:09:07;15.47;;;12.03;;
15412;SDS011;7805;49.554;7.632;2024-01-30T07:11:33;17.07;;;11.97;;
15412;SDS011;7805;49.554;7.632;2024-01-30T07:13:59;14.70;;;11.20;;
15412;SDS011;7805;49.554;7.632;2024-01-30T07:16:25;14.67;;;11.37;;
15412;SDS011;7805;49.554;7.632;2024-01-30T07:18:50;18.10;;;10.83;;
15412;SDS011;7805;49.554;7.632;2024-01-30T07:21:16;14.00;;;10.30;;
15412;SDS011;7805;49.554;7.632;2024-01-30T07:23:42;12.63;;;9.53;;
15412;SDS011;7805;49.554;7.632;2024-01-30T07:26:08;14.30;;;10.63;;
15412;SDS011;7805;49.554;7.632;2024-01-30T07:28:34;15.23;;;11.23;;
15412;SDS011;7805;49.554;7.632;2024-01-30T07:31:00;14.93;;;12.40;;
15412;SDS011;7805;49.554;7.632;2024-01-30T07:33:26;16.63;;;12.77;;
15412;SDS011;7805;49.554;7.632;2024-01-30T07:35:52;28.00;;;18.80;;
15412;SDS011;7805;49.554;7.632;2024-01-30T07:38:18;27.07;;;18.43;;
15412;SDS011;7805;49.554;7.632;2024-01-30T07:40:44;26.07;;;17.20;;
15412;SDS011;7805;49.554;7.632;2024-01-30T07:43:09;25.57;;;16.73;;
15412;SDS011;7805;49.554;7.632;2024-01-30T07:45:35;20.87;;;15.27;;
15412;SDS011;7805;49.554;7.632;2024-01-30T07:48:02;19.80;;;14.57;;
15412;SDS011;7805;49.554;7.632;2024-01-30T07:50:28;22.17;;;16.67;;
15412;SDS011;7805;49.554;7.632;2024-01-30T07:52:55;19.57;;;15.03;;
15412;SDS011;7805;49.554;7.632;2024-01-30T07:55:21;20.07;;;14.67;;
15412;SDS011;7805;49.554;7.632;2024-01-30T07:57:51;22.00;;;15.97;;
15412;SDS011;7805;49.554;7.632;2024-01-30T08:00:17;19.27;;;14.33;;
15412;SDS011;7805;49.554;7.632;2024-01-30T08:02:44;19.23;;;13.77;;
15412;SDS011;7805;49.554;7.632;2024-01-30T08:05:10;21.47;;;15.07;;
15412;SDS011;7805;49.554;7.632;2024-01-30T08:07:36;24.00;;;16.13;;
15412;SDS011;7805;49.554;7.632;2024-01-30T08:10:02;23.53;;;16.17;;
15412;SDS011;7805;49.554;7.632;2024-01-30T08:12:28;25.47;;;17.40;;
15412;SDS011;7805;49.554;7.632;2024-01-30T08:14:54;26.80;;;19.07;;
15412;SDS011;7805;49.554;7.632;2024-01-30T08:17:19;20.23;;;16.00;;
15412;SDS011;7805;49.554;7.632;2024-01-30T08:19:45;19.73;;;14.87;;
15412;SDS011;7805;49.554;7.632;2024-01-30T08:22:11;20.63;;;14.40;;
15412;SDS011;7805;49.554;7.632;2024-01-30T08:24:37;17.50;;;13.40;;
15412;SDS011;7805;49.554;7.632;2024-01-30T08:27:05;17.73;;;13.63;;
15412;SDS011;7805;49.554;7.632;2024-01-30T08:29:31;17.60;;;13.27;;
15412;SDS011;7805;49.554;7.632;2024-01-30T08:31:57;17.73;;;12.33;;
15412;SDS011;7805;49.554;7.632;2024-01-30T08:34:24;15.60;;;11.57;;
15412;SDS011;7805;49.554;7.632;2024-01-30T08:36:49;15.43;;;11.80;;
15412;SDS011;7805;49.554;7.632;2024-01-30T08:39:15;13.63;;;11.60;;
15412;SDS011;7805;49.554;7.632;2024-01-30T08:41:40;35.50;;;22.17;;
15412;SDS011;7805;49.554;7.632;2024-01-30T08:44:06;20.97;;;15.93;;
15412;SDS011;7805;49.554;7.632;2024-01-30T08:46:32;20.93;;;15.00;;
15412;SDS011;7805;49.554;7.632;2024-01-30T08:48:58;18.43;;;13.67;;
15412;SDS011;7805;49.554;7.632;2024-01-30T08:51:24;20.03;;;14.20;;
15412;SDS011;7805;49.554;7.632;2024-01-30T08:53:50;22.13;;;15.53;;
15412;SDS011;7805;49.554;7.632;2024-01-30T08:56:16;21.17;;;15.70;;
15412;SDS011;7805;49.554;7.632;2024-01-30T08:58:42;22.20;;;16.60;;
15412;SDS011;7805;49.554;7.632;2024-01-30T09:01:07;22.93;;;17.97;;
15412;SDS011;7805;49.554;7.632;2024-01-30T09:03:33;24.70;;;19.97;;
15412;SDS011;7805;49.554;7.632;2024-01-30T09:05:59;18.60;;;15.17;;
15412;SDS011;7805;49.554;7.632;2024-01-30T09:08:24;16.83;;;13.67;;
15412;SDS011;7805;49.554;7.632;2024-01-30T09:10:50;15.10;;;11.73;;
15412;SDS011;7805;49.554;7.632;2024-01-30T09:13:15;18.23;;;13.40;;
15412;SDS011;7805;49.554;7.632;2024-01-30T09:15:41;18.33;;;13.20;;
15412;SDS011;7805;49.554;7.632;2024-01-30T09:18:07;16.53;;;13.13;;
15412;SDS011;7805;49.554;7.632;2024-01-30T09:20:33;16.83;;;14.43;;
15412;SDS011;7805;49.554;7.632;2024-01-30T09:22:58;17.77;;;15.13;;
15412;SDS011;7805;49.554;7.632;2024-01-30T09:25:24;17.83;;;14.87;;
15412;SDS011;7805;49.554;7.632;2024-01-30T09:27:49;19.47;;;15.10;;
15412;SDS011;7805;49.554;7.632;2024-01-30T09:30:15;20.07;;;15.47;;
15412;SDS011;7805;49.554;7.632;2024-01-30T09:32:41;28.60;;;20.60;;
15412;SDS011;7805;49.554;7.632;2024-01-30T09:35:08;32.73;;;22.43;;
15412;SDS011;7805;49.554;7.632;2024-01-30T09:37:34;37.53;;;27.47;;
15412;SDS011;7805;49.554;7.632;2024-01-30T09:39:59;25.87;;;19.03;;
15412;SDS011;7805;49.554;7.632;2024-01-30T09:42:33;16.97;;;13.50;;
15412;SDS011;7805;49.554;7.632;2024-01-30T09:45:03;36.93;;;25.97;;
15412;SDS011;7805;49.554;7.632;2024-01-30T09:47:40;23.30;;;18.30;;
15412;SDS011;7805;49.554;7.632;2024-01-30T09:50:13;26.23;;;19.07;;
15412;SDS011;7805;49.554;7.632;2024-01-30T09:52:39;47.67;;;35.70;;
15412;SDS011;7805;49.554;7.632;2024-01-30T09:55:06;40.83;;;29.73;;
15412;SDS011;7805;49.554;7.632;2024-01-30T09:57:32;34.90;;;26.03;;
15412;SDS011;7805;49.554;7.632;2024-01-30T09:59:58;38.03;;;25.67;;
15412;SDS011;7805;49.554;7.632;2024-01-30T10:02:23;33.97;;;26.57;;
15412;SDS011;7805;49.554;7.632;2024-01-30T10:04:49;31.93;;;24.13;;
15412;SDS011;7805;49.554;7.632;2024-01-30T10:07:17;37.97;;;28.93;;
15412;SDS011;7805;49.554;7.632;2024-01-30T10:09:43;38.80;;;27.77;;
15412;SDS011;7805;49.554;7.632;2024-01-30T10:12:08;35.53;;;28.63;;
15412;SDS011;7805;49.554;7.632;2024-01-30T10:14:37;34.07;;;27.20;;
15412;SDS011;7805;49.554;7.632;2024-01-30T10:17:10;37.17;;;30.03;;
15412;SDS011;7805;49.554;7.632;2024-01-30T10:19:37;38.07;;;28.17;;
15412;SDS011;7805;49.554;7.632;2024-01-30T10:22:03;37.13;;;23.90;;
15412;SDS011;7805;49.554;7.632;2024-01-30T10:24:29;43.40;;;27.27;;
15412;SDS011;7805;49.554;7.632;2024-01-30T10:26:56;33.40;;;24.10;;
15412;SDS011;7805;49.554;7.632;2024-01-30T10:29:22;32.43;;;24.23;;
15412;SDS011;7805;49.554;7.632;2024-01-30T10:31:57;30.90;;;22.10;;
15412;SDS011;7805;49.554;7.632;2024-01-30T10:34:23;25.97;;;19.17;;
15412;SDS011;7805;49.554;7.632;2024-01-30T10:36:49;25.03;;;19.80;;
15412;SDS011;7805;49.554;7.632;2024-01-30T10:39:20;24.63;;;20.27;;
15412;SDS011;7805;49.554;7.632;2024-01-30T10:41:48;24.13;;;19.93;;
15412;SDS011;7805;49.554;7.632;2024-01-30T10:44:18;29.23;;;19.40;;
15412;SDS011;7805;49.554;7.632;2024-01-30T10:46:48;25.33;;;19.83;;
15412;SDS011;7805;49.554;7.632;2024-01-30T10:49:21;26.63;;;19.33;;
15412;SDS011;7805;49.554;7.632;2024-01-30T10:51:48;25.83;;;19.67;;
15412;SDS011;7805;49.554;7.632;2024-01-30T10:54:14;27.93;;;21.90;;
15412;SDS011;7805;49.554;7.632;2024-01-30T10:56:42;28.90;;;21.20;;
15412;SDS011;7805;49.554;7.632;2024-01-30T10:59:08;25.73;;;20.17;;
15412;SDS011;7805;49.554;7.632;2024-01-30T11:01:35;20.87;;;16.03;;
15412;SDS011;7805;49.554;7.632;2024-01-30T11:04:00;19.97;;;16.97;;
15412;SDS011;7805;49.554;7.632;2024-01-30T11:06:26;22.17;;;19.03;;
15412;SDS011;7805;49.554;7.632;2024-01-30T11:09:05;24.47;;;17.27;;
15412;SDS011;7805;49.554;7.632;2024-01-30T11:14:26;26.70;;;19.33;;
15412;SDS011;7805;49.554;7.632;2024-01-30T11:16:56;23.57;;;16.93;;
15412;SDS011;7805;49.554;7.632;2024-01-30T11:19:23;30.23;;;17.83;;
15412;SDS011;7805;49.554;7.632;2024-01-30T11:21:50;17.93;;;12.23;;
15412;SDS011;7805;49.554;7.632;2024-01-30T11:24:21;19.03;;;11.97;;
15412;SDS011;7805;49.554;7.632;2024-01-30T11:26:57;30.50;;;19.97;;
15412;SDS011;7805;49.554;7.632;2024-01-30T11:29:24;22.70;;;13.83;;
15412;SDS011;7805;49.554;7.632;2024-01-30T11:31:54;19.07;;;13.07;;
15412;SDS011;7805;49.554;7.632;2024-01-30T11:34:21;25.37;;;18.97;;
15412;SDS011;7805;49.554;7.632;2024-01-30T11:36:54;11.47;;;10.03;;
15412;SDS011;7805;49.554;7.632;2024-01-30T11:39:25;8.17;;;7.03;;
15412;SDS011;7805;49.554;7.632;2024-01-30T11:41:54;9.23;;;7.10;;
15412;SDS011;7805;49.554;7.632;2024-01-30T11:44:20;8.23;;;6.60;;
15412;SDS011;7805;49.554;7.632;2024-01-30T11:46:47;9.73;;;6.70;;
15412;SDS011;7805;49.554;7.632;2024-01-30T11:49:13;9.57;;;6.57;;
15412;SDS011;7805;49.554;7.632;2024-01-30T11:51:39;8.77;;;6.47;;
15412;SDS011;7805;49.554;7.632;2024-01-30T11:54:05;8.63;;;6.50;;
15412;SDS011;7805;49.554;7.632;2024-01-30T11:56:32;15.63;;;12.23;;
15412;SDS011;7805;49.554;7.632;2024-01-30T11:58:57;8.13;;;6.70;;
15412;SDS011;7805;49.554;7.632;2024-01-30T12:01:25;9.00;;;6.80;;
15412;SDS011;7805;49.554;7.632;2024-01-30T12:03:51;9.20;;;6.43;;
15412;SDS011;7805;49.554;7.632;2024-01-30T12:06:17;10.33;;;6.50;;
15412;SDS011;7805;49.554;7.632;2024-01-30T12:08:43;9.03;;;7.10;;
15412;SDS011;7805;49.554;7.632;2024-01-30T12:11:18;7.90;;;6.63;;
15412;SDS011;7805;49.554;7.632;2024-01-30T12:13:44;8.43;;;6.77;;
15412;SDS011;7805;49.554;7.632;2024-01-30T12:16:10;16.00;;;10.23;;
15412;SDS011;7805;49.554;7.632;2024-01-30T12:18:38;78.07;;;48.80;;
15412;SDS011;7805;49.554;7.632;2024-01-30T12:21:03;35.37;;;26.17;;
15412;SDS011;7805;49.554;7.632;2024-01-30T12:23:29;16.50;;;11.20;;
15412;SDS011;7805;49.554;7.632;2024-01-30T12:25:55;17.50;;;10.73;;
15412;SDS011;7805;49.554;7.632;2024-01-30T12:28:22;22.00;;;15.87;;
15412;SDS011;7805;49.554;7.632;2024-01-30T12:30:47;20.77;;;16.73;;
15412;SDS011;7805;49.554;7.632;2024-01-30T12:33:16;14.53;;;10.97;;
15412;SDS011;7805;49.554;7.632;2024-01-30T12:35:46;33.43;;;28.67;;
15412;SDS011;7805;49.554;7.632;2024-01-30T12:38:13;11.90;;;9.77;;
15412;SDS011;7805;49.554;7.632;2024-01-30T12:40:39;12.53;;;9.07;;
15412;SDS011;7805;49.554;7.632;2024-01-30T12:43:05;15.80;;;14.10;;
15412;SDS011;7805;49.554;7.632;2024-01-30T12:45:30;12.43;;;11.10;;
15412;SDS011;7805;49.554;7.632;2024-01-30T12:47:56;9.77;;;7.40;;
15412;SDS011;7805;49.554;7.632;2024-01-30T12:50:23;8.83;;;6.70;;
15412;SDS011;7805;49.554;7.632;2024-01-30T12:52:48;8.47;;;7.03;;
15412;SDS011;7805;49.554;7.632;2024-01-30T12:55:14;8.30;;;6.90;;
15412;SDS011;7805;49.554;7.632;2024-01-30T12:57:40;8.53;;;6.17;;
15412;SDS011;7805;49.554;7.632;2024-01-30T13:00:07;9.30;;;6.80;;
15412;SDS011;7805;49.554;7.632;2024-01-30T13:02:35;7.73;;;6.93;;
15412;SDS011;7805;49.554;7.632;2024-01-30T13:05:03;9.00;;;7.13;;
15412;SDS011;7805;49.554;7.632;2024-01-30T13:07:29;7.40;;;6.40;;
15412;SDS011;7805;49.554;7.632;2024-01-30T13:09:55;9.90;;;6.90;;
15412;SDS011;7805;49.554;7.632;2024-01-30T13:12:27;9.27;;;7.73;;
15412;SDS011;7805;49.554;7.632;2024-01-30T13:14:53;10.30;;;6.57;;
15412;SDS011;7805;49.554;7.632;2024-01-30T13:17:18;8.83;;;6.80;;
15412;SDS011;7805;49.554;7.632;2024-01-30T13:19:44;8.93;;;6.83;;
15412;SDS011;7805;49.554;7.632;2024-01-30T13:22:10;8.87;;;6.43;;
15412;SDS011;7805;49.554;7.632;2024-01-30T13:24:35;18.23;;;5.87;;
15412;SDS011;7805;49.554;7.632;2024-01-30T13:27:01;7.93;;;6.17;;
15412;SDS011;7805;49.554;7.632;2024-01-30T13:29:27;6.43;;;5.83;;
15412;SDS011;7805;49.554;7.632;2024-01-30T13:31:52;7.40;;;5.80;;
15412;SDS011;7805;49.554;7.632;2024-01-30T13:34:18;7.90;;;6.17;;
15412;SDS011;7805;49.554;7.632;2024-01-30T13:36:43;8.10;;;5.80;;
15412;SDS011;7805;49.554;7.632;2024-01-30T13:39:09;6.70;;;5.60;;
15412;SDS011;7805;49.554;7.632;2024-01-30T13:41:37;10.63;;;5.67;;
15412;SDS011;7805;49.554;7.632;2024-01-30T13:44:03;6.60;;;5.67;;
15412;SDS011;7805;49.554;7.632;2024-01-30T13:46:29;9.07;;;6.07;;
15412;SDS011;7805;49.554;7.632;2024-01-30T13:48:56;8.23;;;5.67;;
15412;SDS011;7805;49.554;7.632;2024-01-30T13:51:21;7.50;;;5.63;;
15412;SDS011;7805;49.554;7.632;2024-01-30T13:53:47;7.27;;;5.87;;
15412;SDS011;7805;49.554;7.632;2024-01-30T13:56:12;8.87;;;6.43;;
15412;SDS011;7805;49.554;7.632;2024-01-30T13:58:38;8.70;;;6.67;;
15412;SDS011;7805;49.554;7.632;2024-01-30T14:01:03;8.33;;;6.50;;
15412;SDS011;7805;49.554;7.632;2024-01-30T14:03:29;12.47;;;7.60;;
15412;SDS011;7805;49.554;7.632;2024-01-30T14:05:55;7.60;;;5.87;;
15412;SDS011;7805;49.554;7.632;2024-01-30T14:08:21;8.37;;;6.13;;
15412;SDS011;7805;49.554;7.632;2024-01-30T14:10:48;7.93;;;6.63;;
15412;SDS011;7805;49.554;7.632;2024-01-30T14:13:14;8.20;;;6.80;;
15412;SDS011;7805;49.554;7.632;2024-01-30T14:15:40;8.30;;;6.43;;
15412;SDS011;7805;49.554;7.632;2024-01-30T14:18:05;9.30;;;7.27;;
15412;SDS011;7805;49.554;7.632;2024-01-30T14:20:33;7.73;;;7.03;;
15412;SDS011;7805;49.554;7.632;2024-01-30T14:22:59;9.63;;;7.60;;
15412;SDS011;7805;49.554;7.632;2024-01-30T14:25:24;8.00;;;6.90;;
15412;SDS011;7805;49.554;7.632;2024-01-30T14:27:50;10.07;;;7.93;;
15412;SDS011;7805;49.554;7.632;2024-01-30T14:30:16;7.40;;;6.60;;
15412;SDS011;7805;49.554;7.632;2024-01-30T14:32:42;8.27;;;6.83;;
15412;SDS011;7805;49.554;7.632;2024-01-30T14:35:09;8.43;;;6.30;;
15412;SDS011;7805;49.554;7.632;2024-01-30T14:37:35;8.33;;;6.33;;